sensor_id;sensor_type;location;lat;lon;timestamp;pressure;altitude;pressure_sealevel;temperature;humidity
45894;BME280;31603;51.148;16.932;2022-11-15T00:00:20;100304.88;;;6.17;100.00
45894;BME280;31603;51.148;16.932;2022-11-15T00:02:48;100290.59;;;6.07;100.00
45894;BME280;31603;51.148;16.932;2022-11-15T00:05:14;100263.44;;;5.74;100.00
45894;BME280;31603;51.148;16.932;2022-11-15T00:07:43;100251.25;;;5.54;100.00
45894;BME280;31603;51.148;16.932;2022-11-15T00:10:15;100265.56;;;5.56;100.00
45894;BME280;31603;51.148;16.932;2022-11-15T00:12:42;100307.63;;;6.09;100.00
45894;BME280;31603;51.148;16.932;2022-11-15T00:15:08;100292.88;;;5.87;100.00
45894;BME280;31603;51.148;16.932;2022-11-15T00:17:51;100293.44;;;5.74;100.00
45894;BME280;31603;51.148;16.932;2022-11-15T00:20:17;100295.44;;;5.80;100.00
45894;BME280;31603;51.148;16.932;2022-11-15T00:22:56;100294.47;;;5.73;100.00
45894;BME280;31603;51.148;16.932;2022-11-15T00:25:22;100294.97;;;5.77;100.00
45894;BME280;31603;51.148;16.932;2022-11-15T00:27:55;100279.88;;;5.58;100.00
45894;BME280;31603;51.148;16.932;2022-11-15T00:30:22;100296.34;;;5.81;100.00
45894;BME280;31603;51.148;16.932;2022-11-15T00:33:12;100176.03;;;5.20;100.00
45894;BME280;31603;51.148;16.932;2022-11-15T00:35:38;100217.16;;;5.50;100.00
45894;BME280;31603;51.148;16.932;2022-11-15T00:38:05;100274.38;;;5.66;100.00
45894;BME280;31603;51.148;16.932;2022-11-15T00:40:31;100274.44;;;5.89;100.00
45894;BME280;31603;51.148;16.932;2022-11-15T00:42:58;100277.16;;;5.50;100.00
45894;BME280;31603;51.148;16.932;2022-11-15T00:45:25;100234.16;;;5.21;100.00
45894;BME280;31603;51.148;16.932;2022-11-15T00:48:04;100267.63;;;5.46;100.00
45894;BME280;31603;51.148;16.932;2022-11-15T00:50:31;100282.13;;;5.46;100.00
45894;BME280;31603;51.148;16.932;2022-11-15T00:52:58;100275.63;;;5.47;100.00
45894;BME280;31603;51.148;16.932;2022-11-15T00:55:25;100277.50;;;5.47;100.00
45894;BME280;31603;51.148;16.932;2022-11-15T00:57:51;100278.22;;;5.41;100.00
45894;BME280;31603;51.148;16.932;2022-11-15T01:00:18;100267.38;;;5.24;100.00
45894;BME280;31603;51.148;16.932;2022-11-15T01:02:56;100220.38;;;5.06;100.00
45894;BME280;31603;51.148;16.932;2022-11-15T01:06:03;100281.16;;;5.31;100.00
45894;BME280;31603;51.148;16.932;2022-11-15T01:08:29;100262.59;;;5.18;100.00
45894;BME280;31603;51.148;16.932;2022-11-15T01:11:00;100259.72;;;5.03;100.00
45894;BME280;31603;51.148;16.932;2022-11-15T01:13:39;100260.22;;;5.23;100.00
45894;BME280;31603;51.148;16.932;2022-11-15T01:16:07;100253.47;;;4.95;100.00
45894;BME280;31603;51.148;16.932;2022-11-15T01:18:40;100253.13;;;4.81;100.00
45894;BME280;31603;51.148;16.932;2022-11-15T01:21:10;100250.41;;;4.98;100.00
45894;BME280;31603;51.148;16.932;2022-11-15T01:23:39;100263.69;;;4.60;100.00
45894;BME280;31603;51.148;16.932;2022-11-15T01:26:07;100219.94;;;4.53;100.00
45894;BME280;31603;51.148;16.932;2022-11-15T01:28:37;100262.50;;;4.87;100.00
45894;BME280;31603;51.148;16.932;2022-11-15T01:31:05;100262.34;;;4.72;100.00
45894;BME280;31603;51.148;16.932;2022-11-15T01:33:34;100258.25;;;4.76;100.00
45894;BME280;31603;51.148;16.932;2022-11-15T01:36:08;100253.13;;;4.81;100.00
45894;BME280;31603;51.148;16.932;2022-11-15T01:38:40;100248.88;;;4.87;100.00
45894;BME280;31603;51.148;16.932;2022-11-15T01:41:14;100250.91;;;4.61;100.00
45894;BME280;31603;51.148;16.932;2022-11-15T01:43:41;100212.31;;;4.32;100.00
45894;BME280;31603;51.148;16.932;2022-11-15T01:46:23;100199.34;;;4.10;100.00
45894;BME280;31603;51.148;16.932;2022-11-15T01:48:53;100212.66;;;4.29;100.00
45894;BME280;31603;51.148;16.932;2022-11-15T01:51:25;100223.84;;;4.43;100.00
45894;BME280;31603;51.148;16.932;2022-11-15T01:54:00;100189.84;;;4.22;100.00
45894;BME280;31603;51.148;16.932;2022-11-15T01:56:31;100216.72;;;4.50;100.00
45894;BME280;31603;51.148;16.932;2022-11-15T01:59:01;100201.41;;;4.49;100.00
45894;BME280;31603;51.148;16.932;2022-11-15T02:01:30;100208.53;;;4.50;100.00
45894;BME280;31603;51.148;16.932;2022-11-15T02:04:11;100211.13;;;4.43;100.00
45894;BME280;31603;51.148;16.932;2022-11-15T02:06:49;100151.38;;;4.09;100.00
45894;BME280;31603;51.148;16.932;2022-11-15T02:12:27;100159.53;;;4.17;100.00
45894;BME280;31603;51.148;16.932;2022-11-15T02:14:55;100201.06;;;4.35;100.00
45894;BME280;31603;51.148;16.932;2022-11-15T02:17:35;100163.47;;;3.90;100.00
45894;BME280;31603;51.148;16.932;2022-11-15T02:20:25;100195.78;;;4.58;100.00
45894;BME280;31603;51.148;16.932;2022-11-15T02:23:13;100197.66;;;4.50;100.00
45894;BME280;31603;51.148;16.932;2022-11-15T02:25:57;100194.25;;;4.72;100.00
45894;BME280;31603;51.148;16.932;2022-11-15T02:28:53;100146.66;;;4.11;100.00
45894;BME280;31603;51.148;16.932;2022-11-15T02:31:28;100143.53;;;4.39;100.00
45894;BME280;31603;51.148;16.932;2022-11-15T02:34:04;100199.34;;;4.43;100.00
45894;BME280;31603;51.148;16.932;2022-11-15T02:36:38;100195.97;;;4.49;100.00
45894;BME280;31603;51.148;16.932;2022-11-15T02:39:10;100192.72;;;4.21;100.00
45894;BME280;31603;51.148;16.932;2022-11-15T02:41:41;100190.53;;;4.41;100.00
45894;BME280;31603;51.148;16.932;2022-11-15T02:44:21;100166.69;;;4.02;100.00
45894;BME280;31603;51.148;16.932;2022-11-15T02:46:59;100177.94;;;4.40;100.00
45894;BME280;31603;51.148;16.932;2022-11-15T02:49:42;100119.75;;;3.83;100.00
45894;BME280;31603;51.148;16.932;2022-11-15T02:52:14;100155.31;;;4.15;100.00
45894;BME280;31603;51.148;16.932;2022-11-15T02:54:41;100171.47;;;4.16;100.00
45894;BME280;31603;51.148;16.932;2022-11-15T02:57:13;100175.53;;;4.20;100.00
45894;BME280;31603;51.148;16.932;2022-11-15T02:59:59;100099.50;;;3.70;100.00
45894;BME280;31603;51.148;16.932;2022-11-15T03:02:38;100164.63;;;3.96;100.00
45894;BME280;31603;51.148;16.932;2022-11-15T03:05:17;100189.84;;;4.22;100.00
45894;BME280;31603;51.148;16.932;2022-11-15T03:07:53;100148.34;;;4.04;100.00
45894;BME280;31603;51.148;16.932;2022-11-15T03:10:26;100171.81;;;4.13;100.00
45894;BME280;31603;51.148;16.932;2022-11-15T03:13:16;100153.75;;;3.96;100.00
45894;BME280;31603;51.148;16.932;2022-11-15T03:15:51;100137.78;;;3.93;100.00
45894;BME280;31603;51.148;16.932;2022-11-15T03:18:23;100115.31;;;3.66;100.00
45894;BME280;31603;51.148;16.932;2022-11-15T03:20:55;100160.91;;;3.89;100.00
45894;BME280;31603;51.148;16.932;2022-11-15T03:23:22;100158.16;;;3.80;100.00
45894;BME280;31603;51.148;16.932;2022-11-15T03:25:52;100168.38;;;3.78;100.00
45894;BME280;31603;51.148;16.932;2022-11-15T03:28:25;100165.34;;;4.06;100.00
45894;BME280;31603;51.148;16.932;2022-11-15T03:31:01;100121.44;;;3.84;100.00
45894;BME280;31603;51.148;16.932;2022-11-15T03:33:53;100127.59;;;3.78;100.00
45894;BME280;31603;51.148;16.932;2022-11-15T03:36:23;100149.84;;;3.90;100.00
45894;BME280;31603;51.148;16.932;2022-11-15T03:38:54;100140.66;;;3.83;100.00
45894;BME280;31603;51.148;16.932;2022-11-15T03:41:25;100108.84;;;3.51;100.00
45894;BME280;31603;51.148;16.932;2022-11-15T03:44:34;100056.81;;;3.29;100.00
45894;BME280;31603;51.148;16.932;2022-11-15T03:47:05;100122.47;;;3.92;100.00
45894;BME280;31603;51.148;16.932;2022-11-15T03:49:40;100058.34;;;3.40;100.00
45894;BME280;31603;51.148;16.932;2022-11-15T03:52:09;100100.53;;;3.77;100.00
45894;BME280;31603;51.148;16.932;2022-11-15T03:54:37;100138.13;;;3.81;100.00
45894;BME280;31603;51.148;16.932;2022-11-15T03:57:13;100106.63;;;3.62;100.00
45894;BME280;31603;51.148;16.932;2022-11-15T03:59:39;100138.41;;;3.62;100.00
45894;BME280;31603;51.148;16.932;2022-11-15T04:02:05;100124.16;;;3.68;100.00
45894;BME280;31603;51.148;16.932;2022-11-15T04:04:32;100140.13;;;3.63;100.00
45894;BME280;31603;51.148;16.932;2022-11-15T04:07:00;100080.94;;;3.24;100.00
45894;BME280;31603;51.148;16.932;2022-11-15T04:09:26;100077.16;;;3.17;100.00
45894;BME280;31603;51.148;16.932;2022-11-15T04:11:55;100108.94;;;3.25;100.00
45894;BME280;31603;51.148;16.932;2022-11-15T04:14:21;100116.97;;;3.43;100.00
45894;BME280;31603;51.148;16.932;2022-11-15T04:16:48;100130.91;;;3.48;100.00
45894;BME280;31603;51.148;16.932;2022-11-15T04:19:14;100104.59;;;2.98;100.00
45894;BME280;31603;51.148;16.932;2022-11-15T04:21:59;100125.44;;;3.31;100.00
45894;BME280;31603;51.148;16.932;2022-11-15T04:24:44;100140.13;;;3.63;100.00
45894;BME280;31603;51.148;16.932;2022-11-15T04:27:10;100121.06;;;3.55;100.00
45894;BME280;31603;51.148;16.932;2022-11-15T04:29:38;100127.47;;;3.37;100.00
45894;BME280;31603;51.148;16.932;2022-11-15T04:32:06;100108.88;;;3.08;100.00
45894;BME280;31603;51.148;16.932;2022-11-15T04:34:32;100126.22;;;3.74;100.00
45894;BME280;31603;51.148;16.932;2022-11-15T04:37:00;100119.56;;;3.60;100.00
45894;BME280;31603;51.148;16.932;2022-11-15T04:39:41;100076.34;;;3.33;100.00
45894;BME280;31603;51.148;16.932;2022-11-15T04:42:09;100074.13;;;3.20;100.00
45894;BME280;31603;51.148;16.932;2022-11-15T04:44:37;100120.88;;;3.48;100.00
45894;BME280;31603;51.148;16.932;2022-11-15T04:47:05;100132.47;;;3.50;100.00
45894;BME280;31603;51.148;16.932;2022-11-15T04:49:31;100127.88;;;3.59;100.00
45894;BME280;31603;51.148;16.932;2022-11-15T04:51:58;100090.38;;;3.04;100.00
45894;BME280;31603;51.148;16.932;2022-11-15T04:54:25;100126.16;;;3.42;100.00
45894;BME280;31603;51.148;16.932;2022-11-15T04:56:52;100093.81;;;3.14;100.00
45894;BME280;31603;51.148;16.932;2022-11-15T04:59:18;100085.44;;;3.07;100.00
45894;BME280;31603;51.148;16.932;2022-11-15T05:01:45;100120.34;;;3.28;100.00
45894;BME280;31603;51.148;16.932;2022-11-15T05:04:11;100068.97;;;3.01;100.00
45894;BME280;31603;51.148;16.932;2022-11-15T05:06:47;100123.59;;;3.48;100.00
45894;BME280;31603;51.148;16.932;2022-11-15T05:09:13;100087.72;;;3.28;100.00
45894;BME280;31603;51.148;16.932;2022-11-15T05:11:41;100110.97;;;3.23;100.00
45894;BME280;31603;51.148;16.932;2022-11-15T05:14:08;100109.25;;;3.13;100.00
45894;BME280;31603;51.148;16.932;2022-11-15T05:16:35;100102.66;;;3.24;100.00
45894;BME280;31603;51.148;16.932;2022-11-15T05:19:01;100103.81;;;3.05;100.00
45894;BME280;31603;51.148;16.932;2022-11-15T05:21:28;100098.78;;;3.35;100.00
45894;BME280;31603;51.148;16.932;2022-11-15T05:23:54;100097.75;;;3.28;100.00
45894;BME280;31603;51.148;16.932;2022-11-15T05:26:21;100102.34;;;3.27;100.00
45894;BME280;31603;51.148;16.932;2022-11-15T05:28:52;100113.47;;;3.75;100.00
45894;BME280;31603;51.148;16.932;2022-11-15T05:31:18;100090.47;;;3.36;100.00
45894;BME280;31603;51.148;16.932;2022-11-15T05:33:45;100075.31;;;3.18;100.00
45894;BME280;31603;51.148;16.932;2022-11-15T05:36:15;100043.66;;;2.92;100.00
45894;BME280;31603;51.148;16.932;2022-11-15T05:38:43;100088.06;;;3.33;100.00
45894;BME280;31603;51.148;16.932;2022-11-15T05:41:11;100069.16;;;3.16;100.00
45894;BME280;31603;51.148;16.932;2022-11-15T05:43:41;100017.84;;;2.96;100.00
45894;BME280;31603;51.148;16.932;2022-11-15T05:46:12;100079.56;;;3.20;100.00
45894;BME280;31603;51.148;16.932;2022-11-15T05:48:41;100088.66;;;3.03;100.00
45894;BME280;31603;51.148;16.932;2022-11-15T05:51:09;100088.19;;;3.16;100.00
45894;BME280;31603;51.148;16.932;2022-11-15T05:53:36;100096.09;;;3.51;100.00
45894;BME280;31603;51.148;16.932;2022-11-15T05:56:04;100078.16;;;3.08;100.00
45894;BME280;31603;51.148;16.932;2022-11-15T05:58:32;100046.16;;;2.85;100.00
45894;BME280;31603;51.148;16.932;2022-11-15T06:01:00;100083.03;;;2.96;100.00
45894;BME280;31603;51.148;16.932;2022-11-15T06:03:34;100075.59;;;2.98;100.00
45894;BME280;31603;51.148;16.932;2022-11-15T06:06:04;100083.84;;;2.80;100.00
45894;BME280;31603;51.148;16.932;2022-11-15T06:08:31;100025.03;;;2.55;100.00
45894;BME280;31603;51.148;16.932;2022-11-15T06:11:03;100083.53;;;2.92;100.00
45894;BME280;31603;51.148;16.932;2022-11-15T06:13:29;100084.22;;;2.94;100.00
45894;BME280;31603;51.148;16.932;2022-11-15T06:15:55;100080.09;;;3.24;100.00
45894;BME280;31603;51.148;16.932;2022-11-15T06:18:22;100090.50;;;3.69;100.00
45894;BME280;31603;51.148;16.932;2022-11-15T06:20:50;100042.69;;;3.34;100.00
45894;BME280;31603;51.148;16.932;2022-11-15T06:23:17;100057.63;;;3.13;100.00
45894;BME280;31603;51.148;16.932;2022-11-15T06:25:44;100084.81;;;3.22;100.00
45894;BME280;31603;51.148;16.932;2022-11-15T06:28:11;100060.50;;;3.12;100.00
45894;BME280;31603;51.148;16.932;2022-11-15T06:30:37;100090.25;;;3.30;100.00
45894;BME280;31603;51.148;16.932;2022-11-15T06:33:05;100100.63;;;3.26;100.00
45894;BME280;31603;51.148;16.932;2022-11-15T06:35:33;100106.56;;;3.30;100.00
45894;BME280;31603;51.148;16.932;2022-11-15T06:38:04;100116.50;;;3.05;100.00
45894;BME280;31603;51.148;16.932;2022-11-15T06:40:33;100122.38;;;2.84;100.00
45894;BME280;31603;51.148;16.932;2022-11-15T06:42:59;100131.78;;;2.37;100.00
45894;BME280;31603;51.148;16.932;2022-11-15T06:45:26;100107.72;;;2.42;100.00
45894;BME280;31603;51.148;16.932;2022-11-15T06:47:52;100090.88;;;2.65;100.00
45894;BME280;31603;51.148;16.932;2022-11-15T06:50:19;100090.63;;;2.76;100.00
45894;BME280;31603;51.148;16.932;2022-11-15T06:52:45;100087.38;;;2.73;100.00
45894;BME280;31603;51.148;16.932;2022-11-15T06:55:13;100112.63;;;3.07;100.00
45894;BME280;31603;51.148;16.932;2022-11-15T06:57:49;100069.88;;;3.18;100.00
45894;BME280;31603;51.148;16.932;2022-11-15T07:00:16;100063.91;;;3.06;100.00
45894;BME280;31603;51.148;16.932;2022-11-15T07:02:44;100104.25;;;3.51;100.00
45894;BME280;31603;51.148;16.932;2022-11-15T07:05:10;100129.94;;;3.65;100.00
45894;BME280;31603;51.148;16.932;2022-11-15T07:07:39;100079.59;;;3.45;100.00
45894;BME280;31603;51.148;16.932;2022-11-15T07:10:07;100133.63;;;3.40;100.00
45894;BME280;31603;51.148;16.932;2022-11-15T07:12:42;100126.19;;;3.66;100.00
45894;BME280;31603;51.148;16.932;2022-11-15T07:15:09;100117.69;;;3.69;100.00
45894;BME280;31603;51.148;16.932;2022-11-15T07:17:35;100127.91;;;3.83;100.00
45894;BME280;31603;51.148;16.932;2022-11-15T07:20:02;100122.47;;;4.24;100.00
45894;BME280;31603;51.148;16.932;2022-11-15T07:22:29;100103.75;;;4.29;100.00
45894;BME280;31603;51.148;16.932;2022-11-15T07:24:56;100097.44;;;4.21;100.00
45894;BME280;31603;51.148;16.932;2022-11-15T07:27:23;100099.03;;;4.07;100.00
45894;BME280;31603;51.148;16.932;2022-11-15T07:29:51;100115.78;;;4.59;100.00
45894;BME280;31603;51.148;16.932;2022-11-15T07:32:17;100109.25;;;4.77;100.00
45894;BME280;31603;51.148;16.932;2022-11-15T07:34:43;100113.94;;;4.99;100.00
45894;BME280;31603;51.148;16.932;2022-11-15T07:37:12;100098.25;;;5.32;100.00
45894;BME280;31603;51.148;16.932;2022-11-15T07:39:38;100116.94;;;5.44;100.00
45894;BME280;31603;51.148;16.932;2022-11-15T07:42:05;100088.72;;;4.97;100.00
45894;BME280;31603;51.148;16.932;2022-11-15T07:44:53;100099.78;;;5.35;100.00
45894;BME280;31603;51.148;16.932;2022-11-15T07:47:20;100111.16;;;5.70;100.00
45894;BME280;31603;51.148;16.932;2022-11-15T07:49:46;100108.91;;;5.73;100.00
45894;BME280;31603;51.148;16.932;2022-11-15T07:52:17;100064.66;;;5.63;100.00
45894;BME280;31603;51.148;16.932;2022-11-15T07:54:43;100112.81;;;6.02;100.00
45894;BME280;31603;51.148;16.932;2022-11-15T07:57:10;100080.28;;;6.15;100.00
45894;BME280;31603;51.148;16.932;2022-11-15T07:59:36;100106.53;;;6.54;100.00
45894;BME280;31603;51.148;16.932;2022-11-15T08:02:04;100105.59;;;6.47;100.00
45894;BME280;31603;51.148;16.932;2022-11-15T08:04:30;100073.56;;;6.70;100.00
45894;BME280;31603;51.148;16.932;2022-11-15T08:06:56;100096.75;;;6.74;100.00
45894;BME280;31603;51.148;16.932;2022-11-15T08:09:23;100056.94;;;6.27;100.00
45894;BME280;31603;51.148;16.932;2022-11-15T08:11:50;100079.38;;;7.12;100.00
45894;BME280;31603;51.148;16.932;2022-11-15T08:14:16;100099.03;;;7.37;100.00
45894;BME280;31603;51.148;16.932;2022-11-15T08:16:43;100073.88;;;7.27;100.00
45894;BME280;31603;51.148;16.932;2022-11-15T08:19:10;100059.16;;;7.28;100.00
45894;BME280;31603;51.148;16.932;2022-11-15T08:21:37;100093.91;;;7.91;100.00
45894;BME280;31603;51.148;16.932;2022-11-15T08:24:04;100088.31;;;7.57;100.00
45894;BME280;31603;51.148;16.932;2022-11-15T08:26:30;100067.13;;;7.65;100.00
45894;BME280;31603;51.148;16.932;2022-11-15T08:28:57;100053.97;;;7.97;100.00
45894;BME280;31603;51.148;16.932;2022-11-15T08:31:23;100079.59;;;7.89;100.00
45894;BME280;31603;51.148;16.932;2022-11-15T08:33:49;100084.31;;;8.45;100.00
45894;BME280;31603;51.148;16.932;2022-11-15T08:36:17;100074.19;;;8.46;100.00
45894;BME280;31603;51.148;16.932;2022-11-15T08:38:44;100086.41;;;8.43;100.00
45894;BME280;31603;51.148;16.932;2022-11-15T08:41:12;100061.06;;;8.69;100.00
45894;BME280;31603;51.148;16.932;2022-11-15T08:43:41;100052.56;;;8.99;100.00
45894;BME280;31603;51.148;16.932;2022-11-15T08:46:10;100076.16;;;9.34;100.00
45894;BME280;31603;51.148;16.932;2022-11-15T08:48:37;100067.00;;;9.21;100.00
45894;BME280;31603;51.148;16.932;2022-11-15T08:51:04;100041.16;;;8.95;100.00
45894;BME280;31603;51.148;16.932;2022-11-15T08:53:36;100068.03;;;9.74;100.00
45894;BME280;31603;51.148;16.932;2022-11-15T08:56:06;100055.72;;;9.57;100.00
45894;BME280;31603;51.148;16.932;2022-11-15T08:58:39;100054.91;;;9.63;100.00
45894;BME280;31603;51.148;16.932;2022-11-15T09:01:14;100057.91;;;10.15;100.00
45894;BME280;31603;51.148;16.932;2022-11-15T09:03:41;100060.47;;;10.36;100.00
45894;BME280;31603;51.148;16.932;2022-11-15T09:06:08;100060.41;;;10.76;100.00
45894;BME280;31603;51.148;16.932;2022-11-15T09:08:36;100029.16;;;10.50;100.00
45894;BME280;31603;51.148;16.932;2022-11-15T09:11:04;100025.41;;;10.96;100.00
45894;BME280;31603;51.148;16.932;2022-11-15T09:13:30;100070.41;;;11.22;100.00
45894;BME280;31603;51.148;16.932;2022-11-15T09:15:57;100052.16;;;11.34;100.00
45894;BME280;31603;51.148;16.932;2022-11-15T09:18:24;100064.34;;;11.83;100.00
45894;BME280;31603;51.148;16.932;2022-11-15T09:20:50;100067.78;;;11.85;100.00
45894;BME280;31603;51.148;16.932;2022-11-15T09:23:17;100070.59;;;12.35;100.00
45894;BME280;31603;51.148;16.932;2022-11-15T09:25:45;100058.97;;;12.51;100.00
45894;BME280;31603;51.148;16.932;2022-11-15T09:28:11;100058.09;;;12.94;100.00
45894;BME280;31603;51.148;16.932;2022-11-15T09:30:37;100056.34;;;13.18;100.00
45894;BME280;31603;51.148;16.932;2022-11-15T09:33:07;100051.22;;;13.04;100.00
45894;BME280;31603;51.148;16.932;2022-11-15T09:35:34;100045.38;;;12.93;100.00
45894;BME280;31603;51.148;16.932;2022-11-15T09:38:02;100056.03;;;13.75;100.00
45894;BME280;31603;51.148;16.932;2022-11-15T09:40:30;100054.09;;;14.06;100.00
45894;BME280;31603;51.148;16.932;2022-11-15T09:43:10;100011.88;;;14.10;100.00
45894;BME280;31603;51.148;16.932;2022-11-15T09:45:57;100049.19;;;13.47;100.00
45894;BME280;31603;51.148;16.932;2022-11-15T09:48:44;100043.44;;;14.80;100.00
45894;BME280;31603;51.148;16.932;2022-11-15T09:51:25;100040.06;;;13.77;100.00
45894;BME280;31603;51.148;16.932;2022-11-15T09:54:02;99972.84;;;14.54;100.00
45894;BME280;31603;51.148;16.932;2022-11-15T09:56:32;100023.31;;;14.84;100.00
45894;BME280;31603;51.148;16.932;2022-11-15T09:59:15;100022.88;;;15.28;100.00
45894;BME280;31603;51.148;16.932;2022-11-15T10:01:52;100018.09;;;15.52;100.00
45894;BME280;31603;51.148;16.932;2022-11-15T10:04:22;100018.53;;;15.89;100.00
45894;BME280;31603;51.148;16.932;2022-11-15T10:07:01;100000.72;;;15.85;100.00
45894;BME280;31603;51.148;16.932;2022-11-15T10:09:33;99990.97;;;15.99;100.00
45894;BME280;31603;51.148;16.932;2022-11-15T10:12:03;100008.44;;;16.33;100.00
45894;BME280;31603;51.148;16.932;2022-11-15T10:14:31;100001.81;;;16.73;100.00
45894;BME280;31603;51.148;16.932;2022-11-15T10:17:36;100003.28;;;16.59;100.00
45894;BME280;31603;51.148;16.932;2022-11-15T10:20:13;100002.34;;;16.87;100.00
45894;BME280;31603;51.148;16.932;2022-11-15T10:22:45;99994.34;;;16.35;100.00
45894;BME280;31603;51.148;16.932;2022-11-15T10:25:18;99967.41;;;16.52;100.00
45894;BME280;31603;51.148;16.932;2022-11-15T10:27:52;99985.75;;;17.14;100.00
45894;BME280;31603;51.148;16.932;2022-11-15T10:30:22;99969.47;;;16.62;100.00
45894;BME280;31603;51.148;16.932;2022-11-15T10:32:49;99974.69;;;16.97;100.00
45894;BME280;31603;51.148;16.932;2022-11-15T10:35:18;99986.28;;;16.72;100.00
45894;BME280;31603;51.148;16.932;2022-11-15T10:37:48;99985.41;;;15.66;100.00
45894;BME280;31603;51.148;16.932;2022-11-15T10:40:19;99970.09;;;17.57;100.00
45894;BME280;31603;51.148;16.932;2022-11-15T10:42:46;99944.94;;;17.20;100.00
45894;BME280;31603;51.148;16.932;2022-11-15T10:48:29;99914.31;;;17.69;100.00
45894;BME280;31603;51.148;16.932;2022-11-15T10:50:58;99944.78;;;17.80;100.00
45894;BME280;31603;51.148;16.932;2022-11-15T10:53:32;99935.94;;;17.62;100.00
45894;BME280;31603;51.148;16.932;2022-11-15T10:56:02;99919.34;;;15.96;100.00
45894;BME280;31603;51.148;16.932;2022-11-15T10:58:33;99938.75;;;17.13;100.00
45894;BME280;31603;51.148;16.932;2022-11-15T11:01:15;99924.56;;;17.63;100.00
45894;BME280;31603;51.148;16.932;2022-11-15T11:04:07;99904.88;;;16.89;100.00
45894;BME280;31603;51.148;16.932;2022-11-15T11:06:49;99903.44;;;16.86;100.00
45894;BME280;31603;51.148;16.932;2022-11-15T11:09:58;99903.09;;;17.04;100.00
45894;BME280;31603;51.148;16.932;2022-11-15T11:12:30;99935.59;;;17.26;100.00
45894;BME280;31603;51.148;16.932;2022-11-15T11:14:59;99927.09;;;17.97;100.00
45894;BME280;31603;51.148;16.932;2022-11-15T11:17:35;99944.44;;;18.99;100.00
45894;BME280;31603;51.148;16.932;2022-11-15T11:20:11;99889.47;;;18.74;100.00
45894;BME280;31603;51.148;16.932;2022-11-15T11:22:49;99934.22;;;18.62;100.00
45894;BME280;31603;51.148;16.932;2022-11-15T11:25:27;99922.84;;;19.47;100.00
45894;BME280;31603;51.148;16.932;2022-11-15T11:28:04;99928.00;;;19.03;100.00
45894;BME280;31603;51.148;16.932;2022-11-15T11:30:42;99926.72;;;19.31;100.00
45894;BME280;31603;51.148;16.932;2022-11-15T11:33:16;99931.50;;;19.56;100.00
45894;BME280;31603;51.148;16.932;2022-11-15T11:35:50;99919.84;;;19.89;100.00
45894;BME280;31603;51.148;16.932;2022-11-15T11:38:41;99897.84;;;18.84;100.00
45894;BME280;31603;51.148;16.932;2022-11-15T11:41:27;99836.31;;;19.01;100.00
45894;BME280;31603;51.148;16.932;2022-11-15T11:44:14;99906.72;;;20.05;100.00
45894;BME280;31603;51.148;16.932;2022-11-15T11:46:55;99836.22;;;18.70;100.00
45894;BME280;31603;51.148;16.932;2022-11-15T11:49:27;99900.38;;;17.96;100.00
45894;BME280;31603;51.148;16.932;2022-11-15T11:52:02;99861.41;;;17.91;100.00
45894;BME280;31603;51.148;16.932;2022-11-15T11:54:42;99843.06;;;18.42;100.00
45894;BME280;31603;51.148;16.932;2022-11-15T11:58:01;99809.03;;;19.08;100.00
45894;BME280;31603;51.148;16.932;2022-11-15T12:00:43;99886.94;;;19.76;100.00
45894;BME280;31603;51.148;16.932;2022-11-15T12:03:19;99896.63;;;19.33;100.00
45894;BME280;31603;51.148;16.932;2022-11-15T12:05:50;99872.34;;;19.38;100.00
45894;BME280;31603;51.148;16.932;2022-11-15T12:08:29;99854.22;;;18.47;100.00
45894;BME280;31603;51.148;16.932;2022-11-15T12:11:04;99834.72;;;17.95;100.00
45894;BME280;31603;51.148;16.932;2022-11-15T12:14:03;99822.66;;;17.47;100.00
45894;BME280;31603;51.148;16.932;2022-11-15T12:16:32;99863.94;;;19.08;100.00
45894;BME280;31603;51.148;16.932;2022-11-15T12:19:01;99865.41;;;19.56;100.00
45894;BME280;31603;51.148;16.932;2022-11-15T12:22:00;99826.34;;;19.71;96.56
45894;BME280;31603;51.148;16.932;2022-11-15T12:24:39;99825.69;;;21.01;81.95
45894;BME280;31603;51.148;16.932;2022-11-15T12:27:17;99792.94;;;20.47;80.01
45894;BME280;31603;51.148;16.932;2022-11-15T12:30:02;99855.94;;;19.98;87.12
45894;BME280;31603;51.148;16.932;2022-11-15T12:32:38;99813.34;;;20.57;76.00
45894;BME280;31603;51.148;16.932;2022-11-15T12:35:24;99840.78;;;20.25;78.06
45894;BME280;31603;51.148;16.932;2022-11-15T12:37:52;99831.72;;;21.92;67.09
45894;BME280;31603;51.148;16.932;2022-11-15T12:40:36;99836.56;;;21.02;69.37
45894;BME280;31603;51.148;16.932;2022-11-15T12:46:02;99837.56;;;20.77;71.72
45894;BME280;31603;51.148;16.932;2022-11-15T12:48:47;99841.81;;;22.70;58.23
45894;BME280;31603;51.148;16.932;2022-11-15T12:51:15;99820.94;;;23.19;53.54
45894;BME280;31603;51.148;16.932;2022-11-15T12:53:41;99835.38;;;22.45;57.23
45894;BME280;31603;51.148;16.932;2022-11-15T12:56:24;99801.31;;;22.33;58.05
45894;BME280;31603;51.148;16.932;2022-11-15T12:58:55;99782.28;;;22.06;59.39
45894;BME280;31603;51.148;16.932;2022-11-15T13:01:59;99803.78;;;21.52;59.39
45894;BME280;31603;51.148;16.932;2022-11-15T13:04:29;99820.41;;;23.36;54.11
45894;BME280;31603;51.148;16.932;2022-11-15T13:06:58;99783.72;;;22.94;53.24
45894;BME280;31603;51.148;16.932;2022-11-15T13:12:53;99805.13;;;23.61;52.08
45894;BME280;31603;51.148;16.932;2022-11-15T13:15:46;99807.44;;;23.40;50.66
45894;BME280;31603;51.148;16.932;2022-11-15T13:18:36;99765.94;;;22.80;51.56